Time;durP1;ratioP1;P1;durP2;ratioP2;P2;SDS_P1;SDS_P2;PMS_P1;PMS_P2;Temp;Humidity;BMP_temperature;BMP_pressure;BME280_temperature;BME280_humidity;BME280_pressure;Samples;Min_cycle;Max_cycle;Signal;HPM_P1;HPM_P2
2021/07/01 00:01:54;;;;;;;;;;;;;;;13.69;100.00;101412.25;5250351;28;20327;-67
2021/07/01 00:04:26;;;;;;;32.78;24.95;;;;;;;13.48;100.00;101412.34;5254443;28;19909;-67
2021/07/01 00:06:57;;;;;;;34.65;23.50;;;;;;;13.48;100.00;101401.00;5254182;28;20023;-67
2021/07/01 00:09:29;;;;;;;40.45;25.98;;;;;;;13.45;100.00;101403.88;5252043;28;20029;-67
2021/07/01 00:12:00;;;;;;;33.05;24.13;;;;;;;13.46;100.00;101405.56;5253213;28;20060;-67
2021/07/01 00:14:31;;;;;;;33.60;25.08;;;;;;;13.45;100.00;101403.88;5252703;28;20367;-67
2021/07/01 00:17:03;;;;;;;33.42;23.38;;;;;;;13.46;100.00;101405.56;5253888;28;20170;-67
2021/07/01 00:19:34;;;;;;;34.75;24.27;;;;;;;13.44;100.00;101408.31;5254506;28;20108;-67
2021/07/01 00:22:06;;;;;;;29.75;22.25;;;;;;;13.43;100.00;101400.56;5254087;28;20021;-67
2021/07/01 00:24:37;;;;;;;33.53;21.95;;;;;;;13.48;100.00;101411.53;5267928;28;20033;-67
2021/07/01 00:27:08;;;;;;;27.75;20.92;;;;;;;13.46;100.00;101410.84;5252694;28;20024;-67
2021/07/01 00:29:40;;;;;;;29.63;20.90;;;;;;;13.50;100.00;101406.97;5254297;28;20033;-67
2021/07/01 00:32:11;;;;;;;34.72;20.75;;;;;;;13.46;100.00;101416.94;5253194;28;20025;-67
2021/07/01 00:34:42;;;;;;;36.15;22.30;;;;;;;13.46;100.00;101411.66;5266887;28;20029;-67
2021/07/01 00:37:14;;;;;;;31.42;20.50;;;;;;;13.48;100.00;101412.34;5252642;28;20393;-67
2021/07/01 00:39:45;;;;;;;33.67;20.17;;;;;;;13.47;100.00;101415.97;5254505;28;20090;-67
2021/07/01 00:42:16;;;;;;;31.17;21.10;;;;;;;13.48;100.00;101422.06;5251957;28;20033;-67
2021/07/01 00:44:48;;;;;;;34.35;21.38;;;;;;;13.45;100.00;101409.16;5253803;28;20036;-67
2021/07/01 00:47:19;;;;;;;30.42;19.23;;;;;;;13.46;100.00;101411.66;5254235;28;20697;-66
2021/07/01 00:49:51;;;;;;;28.30;19.98;;;;;;;13.47;100.00;101415.13;5252716;28;20029;-67
2021/07/01 00:52:23;;;;;;;32.70;21.70;;;;;;;13.46;100.00;101416.09;5254185;28;20032;-67
2021/07/01 00:54:54;;;;;;;31.45;21.25;;;;;;;13.44;100.00;101420.66;5252983;28;20032;-67
2021/07/01 00:57:25;;;;;;;31.70;20.58;;;;;;;13.43;100.00;101413.72;5253297;28;20296;-66
2021/07/01 00:59:57;;;;;;;39.58;21.58;;;;;;;13.41;100.00;101410.38;5253385;28;20081;-67
2021/07/01 01:02:28;;;;;;;32.45;21.73;;;;;;;13.46;100.00;101413.47;5254243;28;20029;-67
2021/07/01 01:04:59;;;;;;;38.95;23.33;;;;;;;13.44;100.00;101413.59;5254268;28;20096;-67
2021/07/01 01:07:31;;;;;;;32.85;23.58;;;;;;;13.45;100.00;101414.41;5252472;28;20032;-67
2021/07/01 01:10:04;;;;;;;38.78;23.33;;;;;;;13.42;100.00;101414.72;5253064;28;20512;-67
2021/07/01 01:12:35;;;;;;;;;;;;;;;13.64;100.00;101417.13;5254461;28;20029;-67
2021/07/01 01:15:07;;;;;;;34.47;22.87;;;;;;;13.40;100.00;101412.19;5254007;28;19938;-67
2021/07/01 01:17:43;;;;;;;34.13;22.53;;;;;;;13.42;100.00;101412.06;5252717;28;20067;-67
2021/07/01 01:20:15;;;;;;;33.95;22.63;;;;;;;13.38;100.00;101411.50;5251879;28;20029;-67
2021/07/01 01:22:46;;;;;;;32.13;22.73;;;;;;;13.34;100.00;101400.41;5251512;28;20024;-67
2021/07/01 01:25:17;;;;;;;38.88;22.17;;;;;;;13.35;100.00;101406.50;5253742;28;20401;-67
2021/07/01 01:27:48;;;;;;;36.50;22.00;;;;;;;13.33;100.00;101409.28;5253254;28;20031;-67
2021/07/01 01:30:20;;;;;;;33.83;21.70;;;;;;;13.34;100.00;101403.06;5252951;28;20029;-67
2021/07/01 01:32:51;;;;;;;40.05;23.45;;;;;;;13.33;100.00;101406.66;5269781;28;20023;-67
2021/07/01 01:35:22;;;;;;;31.63;21.00;;;;;;;13.31;100.00;101413.84;5250780;28;20029;-67
2021/07/01 01:37:54;;;;;;;37.03;23.00;;;;;;;13.33;100.00;101403.16;5251632;28;20039;-67
2021/07/01 01:40:25;;;;;;;37.78;22.20;;;;;;;13.32;100.00;101406.78;5253811;28;20024;-67
2021/07/01 01:42:57;;;;;;;35.22;22.50;;;;;;;13.29;100.00;101402.59;5250923;28;20029;-67
2021/07/01 01:45:28;;;;;;;32.47;20.60;;;;;;;13.27;100.00;101407.19;5253216;28;20575;-67
2021/07/01 01:47:59;;;;;;;37.63;22.52;;;;;;;13.32;100.00;101410.25;5256549;28;20025;-67
2021/07/01 01:50:31;;;;;;;37.63;21.92;;;;;;;13.33;100.00;101411.94;5255625;28;20060;-67
2021/07/01 01:53:02;;;;;;;37.53;22.95;;;;;;;13.33;100.00;101406.66;5257166;28;20470;-67
2021/07/01 01:55:35;;;;;;;36.00;22.02;;;;;;;13.33;100.00;101405.81;5273116;28;20028;-67
2021/07/01 01:58:07;;;;;;;32.28;22.92;;;;;;;13.33;100.00;101411.06;5256825;28;20118;-67
2021/07/01 02:00:38;;;;;;;32.13;21.40;;;;;;;13.27;100.00;101406.34;5256338;28;20127;-67
2021/07/01 02:03:09;;;;;;;36.90;21.58;;;;;;;13.30;100.00;101406.91;5255234;28;20481;-67
2021/07/01 02:05:41;;;;;;;38.05;21.00;;;;;;;13.27;100.00;101401.91;5255483;28;20041;-67
2021/07/01 02:08:12;;;;;;;32.13;20.23;;;;;;;13.32;100.00;101404.16;5256102;28;20021;-67
2021/07/01 02:10:43;;;;;;;30.35;20.08;;;;;;;13.28;100.00;101410.66;5256030;28;20040;-68
2021/07/01 02:13:14;;;;;;;30.77;19.88;;;;;;;13.24;100.00;101406.63;5256750;28;20044;-67
2021/07/01 02:15:46;;;;;;;36.30;19.80;;;;;;;13.22;100.00;101404.09;5257393;28;20021;-67
2021/07/01 02:18:17;;;;;;;32.70;19.40;;;;;;;13.25;100.00;101408.28;5256078;28;20020;-67
2021/07/01 02:20:48;;;;;;;34.10;19.33;;;;;;;13.20;100.00;101405.19;5256590;28;20059;-68
2021/07/01 02:23:19;;;;;;;33.78;19.30;;;;;;;13.19;100.00;101412.25;5257740;28;20021;-67
2021/07/01 02:25:51;;;;;;;31.08;18.65;;;;;;;13.16;100.00;101407.25;5256172;28;20484;-67
2021/07/01 02:28:22;;;;;;;28.23;17.48;;;;;;;13.12;100.00;101406.69;5256624;28;20382;-67
2021/07/01 02:30:53;;;;;;;30.73;17.95;;;;;;;13.12;100.00;101405.84;5256578;28;20390;-67
2021/07/01 02:33:25;;;;;;;35.65;17.63;;;;;;;13.09;100.00;101399.06;5256069;28;20762;-68
2021/07/01 02:35:56;;;;;;;36.95;18.52;;;;;;;13.11;100.00;101396.31;5256267;28;20025;-68
2021/07/01 02:38:28;;;;;;;29.00;18.38;;;;;;;13.13;100.00;101399.63;5256552;28;20037;-67
2021/07/01 02:40:59;;;;;;;32.10;16.83;;;;;;;13.11;100.00;101398.94;5256706;28;20025;-67
2021/07/01 02:43:30;;;;;;;31.38;17.35;;;;;;;13.08;100.00;101394.75;5254252;28;20040;-67
2021/07/01 02:46:01;;;;;;;33.15;17.15;;;;;;;13.07;100.00;101401.00;5255682;28;20116;-68
2021/07/01 02:48:33;;;;;;;34.63;16.30;;;;;;;13.07;100.00;101401.00;5256564;28;20036;-67
2021/07/01 02:51:04;;;;;;;30.42;16.80;;;;;;;13.08;100.00;101401.81;5255667;28;20036;-67
2021/07/01 02:53:35;;;;;;;27.48;14.68;;;;;;;13.07;100.00;101401.00;5255291;28;20108;-67
2021/07/01 02:56:07;;;;;;;28.23;14.20;;;;;;;13.06;100.00;101403.75;5256718;28;20036;-67
2021/07/01 02:58:38;;;;;;;30.80;14.07;;;;;;;13.06;100.00;101403.75;5253364;28;20068;-67
2021/07/01 03:01:09;;;;;;;32.75;14.45;;;;;;;13.04;100.00;101408.31;5253989;28;20033;-67
2021/07/01 03:03:40;;;;;;;27.63;14.10;;;;;;;13.07;100.00;101406.25;5254602;28;20033;-67
2021/07/01 03:06:12;;;;;;;30.40;13.65;;;;;;;13.09;100.00;101396.41;5255861;28;20052;-68
2021/07/01 03:08:43;;;;;;;29.23;14.13;;;;;;;13.06;100.00;101398.47;5255765;28;20581;-67
2021/07/01 03:11:14;;;;;;;29.85;14.68;;;;;;;13.03;100.00;101402.22;5255347;28;20025;-67
2021/07/01 03:13:46;;;;;;;27.80;13.25;;;;;;;13.02;100.00;101397.09;5255368;28;20041;-67
2021/07/01 03:16:19;;;;;;;31.08;13.77;;;;;;;13.02;100.00;101402.34;5256422;28;20058;-67
2021/07/01 03:18:52;;;;;;;25.30;13.55;;;;;;;13.02;100.00;101410.25;5255739;28;20510;-67
2021/07/01 03:21:23;;;;;;;27.95;13.55;;;;;;;13.03;100.00;101411.91;5251318;28;20107;-67
2021/07/01 03:23:54;;;;;;;24.83;13.48;;;;;;;12.99;100.00;101413.94;5256437;28;20107;-67
2021/07/01 03:26:26;;;;;;;24.33;12.95;;;;;;;12.98;100.00;101407.03;5256207;28;20029;-67
2021/07/01 03:28:57;;;;;;;27.58;12.75;;;;;;;12.99;100.00;101411.31;5253327;28;20032;-67
2021/07/01 03:31:28;;;;;;;27.55;13.82;;;;;;;13.01;100.00;101416.47;5254904;28;20036;-67
2021/07/01 03:33:59;;;;;;;25.58;13.90;;;;;;;12.96;100.00;101422.13;5255402;28;20025;-67
2021/07/01 03:36:31;;;;;;;22.90;12.90;;;;;;;12.96;100.00;101419.50;5255898;28;20028;-67
2021/07/01 03:39:05;;;;;;;28.05;13.27;;;;;;;12.94;100.00;101415.31;5255666;28;20055;-67
2021/07/01 03:41:36;;;;;;;21.90;12.90;;;;;;;12.95;100.00;101417.81;5253875;28;20124;-67
2021/07/01 03:44:08;;;;;;;28.83;13.13;;;;;;;12.98;100.00;101421.97;5255702;28;20028;-68
2021/07/01 03:46:41;;;;;;;27.17;12.98;;;;;;;12.96;100.00;101416.88;5256475;28;20029;-67
2021/07/01 03:49:12;;;;;;;24.13;12.85;;;;;;;12.89;100.00;101411.28;5253683;28;20056;-67
2021/07/01 03:51:44;;;;;;;28.52;14.25;;;;;;;12.94;100.00;101418.78;5254472;28;20603;-67
2021/07/01 03:54:16;;;;;;;27.23;13.18;;;;;;;12.94;100.00;101415.31;5254818;28;20036;-67
2021/07/01 03:56:47;;;;;;;25.17;12.93;;;;;;;12.98;100.00;101422.81;5255441;28;20028;-67
2021/07/01 03:59:18;;;;;;;25.02;12.90;;;;;;;12.99;100.00;101416.59;5255197;28;20552;-67
2021/07/01 04:01:50;;;;;;;25.85;12.65;;;;;;;12.99;100.00;101423.66;5250923;28;20850;-67
2021/07/01 04:04:21;;;;;;;26.13;13.45;;;;;;;12.96;100.00;101423.94;5254794;28;20024;-67
2021/07/01 04:06:52;;;;;;;26.60;13.63;;;;;;;12.97;100.00;101417.69;5253834;28;20017;-67
2021/07/01 04:09:24;;;;;;;27.63;13.23;;;;;;;12.97;100.00;101420.31;5253483;28;20335;-67
2021/07/01 04:11:55;;;;;;;20.45;11.65;;;;;;;13.01;100.00;101417.28;5252933;28;20114;-67
2021/07/01 04:14:26;;;;;;;29.15;12.93;;;;;;;12.98;100.00;101414.94;5254535;28;20029;-67
2021/07/01 04:16:58;;;;;;;22.63;12.27;;;;;;;12.98;100.00;101424.63;5253537;28;20056;-67
2021/07/01 04:19:29;;;;;;;25.10;11.93;;;;;;;12.96;100.00;101416.03;5253476;28;20020;-67
2021/07/01 04:22:00;;;;;;;23.40;11.90;;;;;;;12.93;100.00;101424.19;5253980;28;20086;-67
2021/07/01 04:24:31;;;;;;;23.23;12.52;;;;;;;12.95;100.00;101423.06;5253180;28;20098;-67
2021/07/01 04:27:03;;;;;;;23.02;11.80;;;;;;;12.93;100.00;101424.19;5254602;28;20028;-67
2021/07/01 04:29:35;;;;;;;20.90;12.10;;;;;;;12.91;100.00;101425.13;5253254;28;21168;-67
2021/07/01 04:32:07;;;;;;;25.20;12.52;;;;;;;12.93;100.00;101419.75;5253921;28;20130;-67
2021/07/01 04:34:38;;;;;;;21.92;11.90;;;;;;;12.89;100.00;101424.44;5253741;28;20021;-67
2021/07/01 04:37:09;;;;;;;26.38;14.05;;;;;;;12.87;100.00;101425.53;5252839;28;20036;-67
2021/07/01 04:39:41;;;;;;;22.15;12.73;;;;;;;12.87;100.00;101431.63;5254393;28;20029;-67
2021/07/01 04:42:13;;;;;;;20.48;11.52;;;;;;;12.76;100.00;101420.34;5254145;28;20024;-68
2021/07/01 04:44:44;;;;;;;22.45;11.68;;;;;;;12.86;100.00;101422.06;5253005;28;20029;-67
2021/07/01 04:47:16;;;;;;;26.65;11.85;;;;;;;12.82;100.00;101425.94;5252594;28;20044;-68
2021/07/01 04:49:47;;;;;;;20.77;10.90;;;;;;;12.84;100.00;101428.41;5252991;28;20037;-67
2021/07/01 04:52:18;;;;;;;20.00;11.00;;;;;;;12.84;100.00;101431.03;5253942;28;20024;-67
2021/07/01 04:54:50;;;;;;;22.92;11.50;;;;;;;12.84;100.00;101431.91;5253047;28;20037;-68
2021/07/01 04:57:21;;;;;;;27.58;12.10;;;;;;;12.87;100.00;101428.16;5253407;28;20017;-68
2021/07/01 04:59:52;;;;;;;24.33;11.60;;;;;;;12.84;100.00;101428.41;5253235;28;20045;-67
2021/07/01 05:02:23;;;;;;;19.83;11.07;;;;;;;12.86;100.00;101429.13;5252265;28;20089;-67
2021/07/01 05:04:55;;;;;;;21.95;12.15;;;;;;;12.80;100.00;101425.22;5252483;28;20029;-67
2021/07/01 05:07:26;;;;;;;22.77;12.23;;;;;;;12.86;100.00;101424.69;5253228;28;20438;-68
2021/07/01 05:09:57;;;;;;;24.05;11.35;;;;;;;12.85;100.00;101428.31;5253002;28;20021;-67
2021/07/01 05:12:28;;;;;;;21.95;12.05;;;;;;;12.88;100.00;101435.09;5251064;28;20071;-68
2021/07/01 05:15:00;;;;;;;24.73;11.93;;;;;;;12.87;100.00;101420.25;5253559;28;20044;-67
2021/07/01 05:17:33;;;;;;;18.75;10.70;;;;;;;12.89;100.00;101428.88;5252446;28;20382;-67
2021/07/01 05:20:05;;;;;;;;;;;;;;;13.12;100.00;101438.25;5252826;28;20716;-67
2021/07/01 05:22:36;;;;;;;22.98;11.25;;;;;;;12.94;100.00;101436.38;5252964;28;20274;-67
2021/07/01 05:25:08;;;;;;;25.00;12.23;;;;;;;12.91;100.00;101440.06;5253195;28;20024;-67
2021/07/01 05:27:40;;;;;;;22.88;11.68;;;;;;;12.87;100.00;101434.25;5252205;28;20056;-67
2021/07/01 05:30:12;;;;;;;21.48;11.38;;;;;;;12.86;100.00;101440.47;5252299;28;20460;-67
2021/07/01 05:32:43;;;;;;;21.00;10.50;;;;;;;12.93;100.00;101435.53;5252628;28;20052;-67
2021/07/01 05:35:15;;;;;;;27.83;12.77;;;;;;;12.89;100.00;101444.66;5253390;28;20799;-67
2021/07/01 05:37:46;;;;;;;24.70;12.30;;;;;;;12.94;100.00;101437.19;5252042;28;20162;-67
2021/07/01 05:40:21;;;;;;;19.23;12.35;;;;;;;12.94;100.00;101436.38;5253414;28;20025;-67
2021/07/01 05:42:52;;;;;;;20.90;12.07;;;;;;;12.96;100.00;101434.44;5253443;28;20048;-67
2021/07/01 05:45:23;;;;;;;19.85;11.10;;;;;;;12.96;100.00;101437.91;5250569;28;20111;-67
2021/07/01 05:47:55;;;;;;;23.90;11.30;;;;;;;12.99;100.00;101442.06;5252622;28;20482;-67
2021/07/01 05:50:26;;;;;;;20.05;11.38;;;;;;;12.94;100.00;101434.56;5252941;28;20035;-67
2021/07/01 05:53:04;;;;;;;19.48;10.90;;;;;;;13.01;100.00;101435.72;5248987;28;20143;-67
2021/07/01 05:55:35;;;;;;;22.92;11.13;;;;;;;13.02;100.00;101436.53;5252126;28;20036;-67
2021/07/01 05:58:06;;;;;;;21.20;10.30;;;;;;;13.04;100.00;101435.44;5250683;28;20030;-67
2021/07/01 06:00:38;;;;;;;21.67;10.88;;;;;;;13.04;100.00;101440.72;5251622;28;20147;-67
2021/07/01 06:03:10;;;;;;;24.42;10.52;;;;;;;13.04;100.00;101432.81;5248914;28;20083;-68
2021/07/01 06:05:44;;;;;;;24.05;10.73;;;;;;;13.08;100.00;101431.59;5249930;28;20432;-67
2021/07/01 06:08:17;;;;;;;22.70;10.15;;;;;;;13.06;100.00;101437.94;5250834;28;20462;-67
2021/07/01 06:10:51;;;;;;;25.13;10.88;;;;;;;13.09;100.00;101441.13;5242573;28;20148;-67
2021/07/01 06:13:23;;;;;;;17.92;10.18;;;;;;;13.12;100.00;101443.50;5250933;28;20037;-67
2021/07/01 06:15:56;;;;;;;18.85;10.85;;;;;;;13.15;100.00;101439.78;5253512;28;20029;-67
2021/07/01 06:18:27;;;;;;;22.08;10.82;;;;;;;13.19;100.00;101435.94;5251501;28;20029;-67
2021/07/01 06:20:58;;;;;;;18.40;10.85;;;;;;;13.24;100.00;101439.03;5252116;28;20298;-67
2021/07/01 06:23:30;;;;;;;19.33;11.23;;;;;;;13.21;100.00;101455.03;5252980;28;20112;-68
2021/07/01 06:26:01;;;;;;;20.75;10.48;;;;;;;13.20;100.00;101442.84;5251416;28;20017;-67
2021/07/01 06:28:40;;;;;;;16.00;9.52;;;;;;;13.30;100.00;101441.13;5252605;28;20494;-67
2021/07/01 06:31:12;;;;;;;22.45;10.68;;;;;;;13.26;100.00;101441.50;5253413;28;20060;-68
2021/07/01 06:33:45;;;;;;;18.92;10.20;;;;;;;13.31;100.00;101444.59;5253878;28;20925;-68
2021/07/01 06:36:21;;;;;;;17.73;9.90;;;;;;;13.33;100.00;101446.13;5252183;28;20031;-68
2021/07/01 06:38:55;;;;;;;17.52;9.45;;;;;;;13.34;100.00;101439.91;5255459;28;20020;-67
2021/07/01 06:41:28;;;;;;;17.77;9.73;;;;;;;13.38;100.00;101443.94;5254115;28;20036;-67
2021/07/01 06:44:01;;;;;;;21.30;10.52;;;;;;;13.31;100.00;101439.31;5255227;28;20043;-67
2021/07/01 06:46:33;;;;;;;20.88;10.45;;;;;;;13.34;100.00;101441.69;5256077;28;20103;-67
2021/07/01 06:49:05;;;;;;;21.52;9.95;;;;;;;13.33;100.00;101442.63;5255190;28;20122;-67
2021/07/01 06:51:39;;;;;;;18.42;10.02;;;;;;;13.31;100.00;101442.78;5253958;28;20035;-68
2021/07/01 06:54:17;;;;;;;17.33;9.18;;;;;;;13.32;100.00;101447.06;5256181;28;20025;-67
2021/07/01 06:56:48;;;;;;;20.83;9.48;;;;;;;13.26;100.00;101450.25;5255438;28;20032;-67
2021/07/01 06:59:22;;;;;;;19.70;10.00;;;;;;;13.34;100.00;101450.41;5255482;28;20045;-67
2021/07/01 07:01:55;;;;;;;16.67;9.02;;;;;;;13.35;100.00;101452.06;5255431;28;20082;-67
2021/07/01 07:04:27;;;;;;;15.02;8.98;;;;;;;13.47;100.00;101447.53;5254421;28;20020;-67
2021/07/01 07:06:58;;;;;;;14.65;9.13;;;;;;;13.51;100.00;101451.56;5254456;28;20017;-66
2021/07/01 07:09:30;;;;;;;16.25;9.60;;;;;;;13.50;100.00;101456.97;5253266;28;20481;-66
2021/07/01 07:12:01;;;;;;;21.00;9.60;;;;;;;13.59;100.00;101454.34;5253425;28;20036;-66
2021/07/01 07:14:32;;;;;;;15.80;9.23;;;;;;;13.59;100.00;101456.16;5253397;28;20477;-67
2021/07/01 07:17:05;;;;;;;18.58;9.40;;;;;;;13.55;100.00;101460.88;5254231;28;20021;-66
2021/07/01 07:19:42;;;;;;;15.02;9.10;;;;;;;13.60;100.00;101455.22;5253684;28;20103;-67
2021/07/01 07:22:16;;;;;;;19.23;9.07;;;;;;;13.58;100.00;101457.13;5249638;28;20019;-67
2021/07/01 07:24:53;;;;;;;21.30;9.27;;;;;;;13.59;100.00;101458.78;5250992;28;20039;-67
2021/07/01 07:27:27;;;;;;;18.83;9.05;;;;;;;13.63;100.00;101457.56;5251533;28;20021;-67
2021/07/01 07:29:59;;;;;;;17.13;8.93;;;;;;;13.67;100.00;101460.75;5253308;28;20542;-67
2021/07/01 07:32:31;;;;;;;17.15;9.57;;;;;;;13.78;100.00;101463.28;5252300;28;20118;-67
2021/07/01 07:35:03;;;;;;;16.48;8.70;;;;;;;13.71;100.00;101468.25;5251175;28;20029;-67
2021/07/01 07:37:35;;;;;;;16.60;9.32;;;;;;;13.84;100.00;101463.56;5254654;28;20139;-67
2021/07/01 07:40:07;;;;;;;14.18;9.07;;;;;;;13.93;100.00;101471.63;5251465;28;20025;-67
2021/07/01 07:42:41;;;;;;;21.13;9.93;;;;;;;13.87;100.00;101467.75;5253071;28;20028;-67
2021/07/01 07:45:15;;;;;;;13.70;9.25;;;;;;;13.88;100.00;101472.03;5252610;28;20423;-67
2021/07/01 07:47:46;;;;;;;;;;;;;;;14.12;100.00;101464.56;5251611;28;20033;-67
2021/07/01 07:50:19;;;;;;;17.45;8.13;;;;;;;14.02;100.00;101462.91;5253502;28;20366;-67
2021/07/01 07:52:51;;;;;;;15.30;8.90;;;;;;;14.01;100.00;101469.13;5254330;28;20689;-67
2021/07/01 07:55:29;;;;;;;16.58;8.52;;;;;;;13.98;100.00;101470.25;5253342;28;20311;-67
2021/07/01 07:58:03;;;;;;;16.58;9.23;;;;;;;13.95;100.00;101469.69;5253245;28;20029;-67
2021/07/01 08:00:35;;;;;;;19.40;9.15;;;;;;;13.94;100.00;101474.13;5251577;28;20064;-66
2021/07/01 08:03:07;;;;;;;15.13;8.43;;;;;;;13.87;100.00;101468.56;5252455;28;20524;-66
2021/07/01 08:05:39;;;;;;;14.75;8.70;;;;;;;13.83;100.00;101471.63;5251471;28;20288;-67
2021/07/01 08:08:15;;;;;;;11.40;7.67;;;;;;;13.98;100.00;101474.66;5250787;28;20033;-67
2021/07/01 08:10:48;;;;;;;14.40;8.02;;;;;;;13.96;100.00;101474.00;5254058;28;20040;-66
2021/07/01 08:13:20;;;;;;;17.50;8.80;;;;;;;13.93;100.00;101471.63;5254609;28;20035;-66
2021/07/01 08:15:52;;;;;;;16.33;8.95;;;;;;;13.95;100.00;101467.88;5254888;28;20045;-67
2021/07/01 08:18:40;;;;;;;15.07;8.45;;;;;;;14.04;100.00;101471.50;5253565;28;20561;-67
2021/07/01 08:21:13;;;;;;;13.68;8.15;;;;;;;13.91;100.00;101468.31;5251067;28;20033;-67
2021/07/01 08:23:45;;;;;;;15.00;8.27;;;;;;;13.96;100.00;101471.34;5253814;28;20036;-66
2021/07/01 08:26:17;;;;;;;16.30;9.05;;;;;;;13.99;100.00;101477.19;5253188;28;20417;-66
2021/07/01 08:28:49;;;;;;;16.23;8.00;;;;;;;13.91;100.00;101477.03;5253735;28;20017;-67
2021/07/01 08:31:21;;;;;;;13.18;7.25;;;;;;;13.92;100.00;101483.97;5253097;28;20017;-67
2021/07/01 08:33:52;;;;;;;15.27;7.63;;;;;;;13.96;100.00;101485.34;5252726;28;20432;-67
2021/07/01 08:36:25;;;;;;;14.15;7.35;;;;;;;13.99;100.00;101479.00;5251855;28;20332;-66
2021/07/01 08:38:57;;;;;;;16.63;7.55;;;;;;;14.06;100.00;101480.09;5253114;28;20399;-67
2021/07/01 08:41:29;;;;;;;12.77;6.78;;;;;;;14.02;100.00;101489.25;5252031;28;20045;-67
2021/07/01 08:44:06;;;;;;;12.55;6.82;;;;;;;14.01;100.00;101480.50;5246293;28;20056;-67
2021/07/01 08:46:46;;;;;;;12.98;6.07;;;;;;;13.99;100.00;101481.63;5251445;28;20025;-67
2021/07/01 08:49:35;;;;;;;11.77;7.07;;;;;;;14.02;100.00;101484.81;5251682;28;20044;-67
2021/07/01 08:52:06;;;;;;;13.88;6.78;;;;;;;13.96;100.00;101489.78;5250949;28;20029;-67
2021/07/01 08:54:42;;;;;;;16.58;6.32;;;;;;;13.99;100.00;101494.78;5250087;28;20056;-67
2021/07/01 08:57:15;;;;;;;15.23;6.80;;;;;;;13.95;100.00;101496.88;5250278;28;20036;-68
2021/07/01 08:59:56;;;;;;;9.55;5.88;;;;;;;13.98;100.00;101498.38;5252897;28;20041;-67
2021/07/01 09:02:39;;;;;;;12.23;5.75;;;;;;;14.01;100.00;101500.75;5249302;28;20063;-66
2021/07/01 09:05:13;;;;;;;;;;;;;;;14.22;100.00;101504.09;5251553;28;20135;-67
2021/07/01 09:07:53;;;;;;;13.30;6.70;;;;;;;14.10;100.00;101498.13;5252124;28;19996;-67
2021/07/01 09:10:28;;;;;;;12.57;6.28;;;;;;;14.03;100.00;101498.81;5252416;28;20371;-67
2021/07/01 09:13:03;;;;;;;12.07;5.90;;;;;;;13.98;100.00;101490.47;5248670;28;20040;-67
2021/07/01 09:15:35;;;;;;;13.23;6.03;;;;;;;14.06;100.00;101494.13;5251546;28;20435;-67
2021/07/01 09:18:09;;;;;;;15.40;6.37;;;;;;;13.99;100.00;101497.44;5253345;28;20029;-67
2021/07/01 09:20:41;;;;;;;13.00;6.65;;;;;;;13.94;100.00;101495.22;5248765;28;20031;-67
2021/07/01 09:23:13;;;;;;;13.65;6.78;;;;;;;14.02;100.00;101508.53;5250957;28;20033;-66
2021/07/01 09:25:44;;;;;;;13.85;6.30;;;;;;;14.00;100.00;101499.09;5252487;28;20115;-67
2021/07/01 09:28:16;;;;;;;13.10;5.97;;;;;;;14.01;100.00;101506.84;5249597;28;20052;-67
2021/07/01 09:30:47;;;;;;;14.73;6.13;;;;;;;14.13;100.00;101497.03;5250859;28;20074;-67
2021/07/01 09:33:18;;;;;;;12.38;6.47;;;;;;;14.09;100.00;101503.53;5252741;28;20120;-67
2021/07/01 09:35:50;;;;;;;11.77;6.13;;;;;;;14.06;100.00;101504.66;5249506;28;20031;-67
2021/07/01 09:38:24;;;;;;;11.60;7.15;;;;;;;14.04;100.00;101505.75;5250735;28;20256;-67
2021/07/01 09:40:55;;;;;;;12.68;6.75;;;;;;;14.01;100.00;101500.75;5248350;28;20112;-68
2021/07/01 09:43:28;;;;;;;12.32;6.15;;;;;;;14.09;100.00;101503.53;5250822;28;20111;-67
2021/07/01 09:46:01;;;;;;;13.27;6.28;;;;;;;14.08;100.00;101509.78;5252307;28;20029;-67
2021/07/01 09:48:35;;;;;;;9.32;5.90;;;;;;;14.14;100.00;101511.88;5252278;28;20021;-67
2021/07/01 09:51:07;;;;;;;10.27;6.68;;;;;;;14.19;100.00;101508.81;5251702;28;20451;-67
2021/07/01 09:53:39;;;;;;;10.77;6.70;;;;;;;14.28;100.00;101510.63;5253119;28;20037;-67
2021/07/01 09:56:12;;;;;;;13.45;6.78;;;;;;;14.27;100.00;101507.16;5250672;28;20029;-67
2021/07/01 09:58:50;;;;;;;14.07;6.95;;;;;;;14.25;100.00;101517.00;5248081;28;20041;-67
2021/07/01 10:01:27;;;;;;;11.68;6.43;;;;;;;14.22;100.00;101517.28;5250817;28;20035;-67
2021/07/01 10:04:00;;;;;;;11.18;6.30;;;;;;;14.20;100.00;101516.56;5252122;28;20540;-67
2021/07/01 10:06:31;;;;;;;;;;;;;;;14.46;100.00;101511.59;5251880;28;20029;-67
2021/07/01 10:09:05;;;;;;;14.60;5.83;;;;;;;14.30;100.00;101517.44;5250938;28;19927;-66
2021/07/01 10:11:42;;;;;;;9.48;5.32;;;;;;;14.25;100.00;101524.09;5252542;28;20052;-67
2021/07/01 10:14:17;;;;;;;11.88;6.00;;;;;;;14.16;100.00;101525.72;5255133;28;20490;-67
2021/07/01 10:16:49;;;;;;;10.60;5.85;;;;;;;14.22;100.00;101519.09;5254891;28;20629;-67
2021/07/01 10:19:25;;;;;;;9.45;5.97;;;;;;;14.18;100.00;101520.34;5253143;28;20039;-68
2021/07/01 10:22:04;;;;;;;11.68;5.70;;;;;;;14.33;100.00;101526.88;5254651;28;20078;-68
2021/07/01 10:24:52;;;;;;;11.65;5.72;;;;;;;14.40;100.00;101533.25;5255942;28;20142;-67
2021/07/01 10:27:36;;;;;;;14.70;5.78;;;;;;;14.39;100.00;101521.03;5254891;28;20078;-67
2021/07/01 10:30:21;;;;;;;12.45;6.35;;;;;;;14.47;100.00;101526.47;5254340;28;20090;-68
2021/07/01 10:32:57;;;;;;;13.90;6.18;;;;;;;14.36;100.00;101526.59;5256536;28;20027;-68
2021/07/01 10:35:35;;;;;;;8.38;5.50;;;;;;;14.43;100.00;101532.13;5249021;28;20028;-68
2021/07/01 10:38:13;;;;;;;14.27;5.82;;;;;;;14.43;100.00;101535.59;5250472;28;20670;-68
2021/07/01 10:40:45;;;;;;;11.75;5.95;;;;;;;14.41;100.00;101529.66;5252802;28;20033;-68
2021/07/01 10:43:21;;;;;;;14.80;6.45;;;;;;;14.49;100.00;101540.34;5250898;28;20033;-68
2021/07/01 10:45:58;;;;;;;15.07;6.30;;;;;;;14.48;100.00;101538.66;5253475;28;20057;-68
2021/07/01 10:48:29;;;;;;;12.55;5.57;;;;;;;14.48;100.00;101535.22;5253396;28;20296;-68
2021/07/01 10:51:10;;;;;;;14.00;6.38;;;;;;;14.51;100.00;101534.97;5252608;28;20040;-68
2021/07/01 10:53:43;;;;;;;11.23;6.28;;;;;;;14.55;100.00;101534.53;5253409;28;20045;-68
2021/07/01 10:56:14;;;;;;;;;;;;;;;14.77;100.00;101530.78;5253741;28;20031;-68
2021/07/01 10:58:54;;;;;;;10.52;5.50;;;;;;;14.66;100.00;101527.44;5251991;28;20305;-68
2021/07/01 11:01:30;;;;;;;10.43;6.35;;;;;;;14.78;100.00;101537.72;5253695;28;20017;-68
2021/07/01 11:04:05;;;;;;;12.23;6.85;;;;;;;14.72;100.00;101538.28;5251457;28;20021;-68
2021/07/01 11:06:42;;;;;;;12.07;6.20;;;;;;;14.74;100.00;101530.22;5246239;28;20036;-68
2021/07/01 11:09:15;;;;;;;14.60;6.80;;;;;;;14.71;100.00;101533.16;5247406;28;20280;-68
2021/07/01 11:11:48;;;;;;;14.18;6.72;;;;;;;14.66;100.00;101538.84;5241545;28;20032;-67
2021/07/01 11:14:20;;;;;;;17.73;7.25;;;;;;;14.63;100.00;101541.75;5252267;28;20119;-68
2021/07/01 11:16:59;;;;;;;15.40;6.40;;;;;;;14.76;100.00;101542.28;5253052;28;20043;-68
2021/07/01 11:19:44;;;;;;;15.70;7.28;;;;;;;14.79;100.00;101539.38;5251600;28;20045;-68
2021/07/01 11:22:15;;;;;;;16.08;7.32;;;;;;;14.80;100.00;101535.75;5253125;28;20021;-68
2021/07/01 11:24:47;;;;;;;15.80;8.32;;;;;;;14.89;100.00;101538.53;5254120;28;20392;-67
2021/07/01 11:27:22;;;;;;;18.60;7.95;;;;;;;14.92;100.00;101539.06;5252915;28;20031;-68
2021/07/01 11:29:54;;;;;;;13.20;7.88;;;;;;;14.90;100.00;101533.13;5248058;28;20095;-68
2021/07/01 11:32:27;;;;;;;15.10;8.13;;;;;;;14.94;100.00;101539.78;5244571;28;20025;-67